sensor_id;sensor_type;location;lat;lon;timestamp;P1;durP1;ratioP1;P2;durP2;ratioP2
73276;SDS011;61501;43.316;5.372;2022-08-01T00:01:20;6.07;;;3.00;;
73276;SDS011;61501;43.316;5.372;2022-08-01T00:03:46;5.35;;;3.40;;
73276;SDS011;61501;43.316;5.372;2022-08-01T00:06:12;4.93;;;3.10;;
73276;SDS011;61501;43.316;5.372;2022-08-01T00:08:37;5.13;;;2.80;;
73276;SDS011;61501;43.316;5.372;2022-08-01T00:11:03;4.40;;;3.10;;
73276;SDS011;61501;43.316;5.372;2022-08-01T00:13:28;5.43;;;3.47;;
73276;SDS011;61501;43.316;5.372;2022-08-01T00:15:54;5.40;;;3.60;;
73276;SDS011;61501;43.316;5.372;2022-08-01T00:18:20;4.68;;;3.33;;
73276;SDS011;61501;43.316;5.372;2022-08-01T00:20:46;6.85;;;3.45;;
73276;SDS011;61501;43.316;5.372;2022-08-01T00:23:11;4.95;;;3.25;;
73276;SDS011;61501;43.316;5.372;2022-08-01T00:25:37;4.10;;;2.95;;
73276;SDS011;61501;43.316;5.372;2022-08-01T00:28:02;4.13;;;2.70;;
73276;SDS011;61501;43.316;5.372;2022-08-01T00:30:28;6.85;;;3.17;;
73276;SDS011;61501;43.316;5.372;2022-08-01T00:32:54;3.60;;;3.00;;
73276;SDS011;61501;43.316;5.372;2022-08-01T00:35:20;5.20;;;3.20;;
73276;SDS011;61501;43.316;5.372;2022-08-01T00:37:45;5.20;;;3.10;;
73276;SDS011;61501;43.316;5.372;2022-08-01T00:40:11;4.95;;;2.95;;
73276;SDS011;61501;43.316;5.372;2022-08-01T00:42:37;7.97;;;3.00;;
73276;SDS011;61501;43.316;5.372;2022-08-01T00:45:02;5.30;;;2.90;;
73276;SDS011;61501;43.316;5.372;2022-08-01T00:47:29;4.82;;;3.00;;
73276;SDS011;61501;43.316;5.372;2022-08-01T00:49:55;5.28;;;3.10;;
73276;SDS011;61501;43.316;5.372;2022-08-01T00:52:20;4.65;;;3.05;;
73276;SDS011;61501;43.316;5.372;2022-08-01T00:54:46;7.78;;;3.17;;
73276;SDS011;61501;43.316;5.372;2022-08-01T00:57:12;5.10;;;3.20;;
73276;SDS011;61501;43.316;5.372;2022-08-01T00:59:38;4.68;;;2.92;;
73276;SDS011;61501;43.316;5.372;2022-08-01T01:02:05;5.28;;;3.22;;
73276;SDS011;61501;43.316;5.372;2022-08-01T01:04:31;4.47;;;3.00;;
73276;SDS011;61501;43.316;5.372;2022-08-01T01:09:53;4.97;;;3.03;;
73276;SDS011;61501;43.316;5.372;2022-08-01T01:15:27;4.10;;;3.17;;
73276;SDS011;61501;43.316;5.372;2022-08-01T01:20:32;5.13;;;3.05;;
73276;SDS011;61501;43.316;5.372;2022-08-01T01:30:42;5.55;;;3.25;;
73276;SDS011;61501;43.316;5.372;2022-08-01T01:33:11;5.95;;;3.40;;
73276;SDS011;61501;43.316;5.372;2022-08-01T01:35:41;3.65;;;2.95;;
73276;SDS011;61501;43.316;5.372;2022-08-01T01:38:14;5.23;;;2.97;;
73276;SDS011;61501;43.316;5.372;2022-08-01T01:40:46;3.60;;;3.00;;
73276;SDS011;61501;43.316;5.372;2022-08-01T01:43:14;6.75;;;2.95;;
73276;SDS011;61501;43.316;5.372;2022-08-01T01:45:41;5.10;;;3.40;;
73276;SDS011;61501;43.316;5.372;2022-08-01T01:48:09;7.93;;;3.50;;
73276;SDS011;61501;43.316;5.372;2022-08-01T01:50:37;7.93;;;3.75;;
73276;SDS011;61501;43.316;5.372;2022-08-01T01:53:04;7.97;;;4.47;;
73276;SDS011;61501;43.316;5.372;2022-08-01T01:55:32;7.13;;;4.10;;
73276;SDS011;61501;43.316;5.372;2022-08-01T01:57:59;4.53;;;3.30;;
73276;SDS011;61501;43.316;5.372;2022-08-01T02:00:25;8.70;;;6.65;;
73276;SDS011;61501;43.316;5.372;2022-08-01T02:02:53;5.68;;;4.57;;
73276;SDS011;61501;43.316;5.372;2022-08-01T02:05:21;6.63;;;4.28;;
73276;SDS011;61501;43.316;5.372;2022-08-01T02:07:48;7.45;;;4.90;;
73276;SDS011;61501;43.316;5.372;2022-08-01T02:10:15;6.13;;;4.18;;
73276;SDS011;61501;43.316;5.372;2022-08-01T02:12:43;7.00;;;3.55;;
73276;SDS011;61501;43.316;5.372;2022-08-01T02:15:11;4.88;;;3.00;;
73276;SDS011;61501;43.316;5.372;2022-08-01T02:17:41;4.65;;;2.97;;
73276;SDS011;61501;43.316;5.372;2022-08-01T02:20:09;4.32;;;2.80;;
73276;SDS011;61501;43.316;5.372;2022-08-01T02:22:42;4.68;;;2.72;;
73276;SDS011;61501;43.316;5.372;2022-08-01T02:25:18;4.38;;;2.72;;
73276;SDS011;61501;43.316;5.372;2022-08-01T02:27:54;4.45;;;2.80;;
73276;SDS011;61501;43.316;5.372;2022-08-01T02:30:38;4.93;;;3.17;;
73276;SDS011;61501;43.316;5.372;2022-08-01T02:33:21;5.00;;;2.83;;
73276;SDS011;61501;43.316;5.372;2022-08-01T02:36:04;8.82;;;3.10;;
73276;SDS011;61501;43.316;5.372;2022-08-01T02:38:33;5.75;;;3.08;;
73276;SDS011;61501;43.316;5.372;2022-08-01T02:41:04;5.07;;;3.33;;
73276;SDS011;61501;43.316;5.372;2022-08-01T02:43:33;4.47;;;2.70;;
73276;SDS011;61501;43.316;5.372;2022-08-01T02:46:04;5.25;;;3.15;;
73276;SDS011;61501;43.316;5.372;2022-08-01T02:48:32;5.72;;;2.90;;
73276;SDS011;61501;43.316;5.372;2022-08-01T02:51:00;5.72;;;3.28;;
73276;SDS011;61501;43.316;5.372;2022-08-01T02:53:27;4.75;;;3.17;;
73276;SDS011;61501;43.316;5.372;2022-08-01T02:58:25;5.03;;;3.10;;
73276;SDS011;61501;43.316;5.372;2022-08-01T03:00:51;4.78;;;3.03;;
73276;SDS011;61501;43.316;5.372;2022-08-01T03:03:18;5.53;;;2.95;;
73276;SDS011;61501;43.316;5.372;2022-08-01T03:05:44;6.28;;;3.00;;
73276;SDS011;61501;43.316;5.372;2022-08-01T03:08:11;3.17;;;2.72;;
73276;SDS011;61501;43.316;5.372;2022-08-01T03:10:39;4.47;;;3.30;;
73276;SDS011;61501;43.316;5.372;2022-08-01T03:13:06;5.75;;;3.20;;
73276;SDS011;61501;43.316;5.372;2022-08-01T03:15:35;8.52;;;3.28;;
73276;SDS011;61501;43.316;5.372;2022-08-01T03:18:05;5.38;;;3.22;;
73276;SDS011;61501;43.316;5.372;2022-08-01T03:20:32;5.68;;;3.20;;
73276;SDS011;61501;43.316;5.372;2022-08-01T03:22:59;3.58;;;2.78;;
73276;SDS011;61501;43.316;5.372;2022-08-01T03:25:29;5.32;;;3.13;;
73276;SDS011;61501;43.316;5.372;2022-08-01T03:27:58;4.35;;;3.00;;
73276;SDS011;61501;43.316;5.372;2022-08-01T03:30:26;5.07;;;3.05;;
73276;SDS011;61501;43.316;5.372;2022-08-01T03:32:52;5.22;;;2.95;;
73276;SDS011;61501;43.316;5.372;2022-08-01T03:35:18;3.33;;;2.65;;
73276;SDS011;61501;43.316;5.372;2022-08-01T03:37:46;4.15;;;2.85;;
73276;SDS011;61501;43.316;5.372;2022-08-01T03:40:38;3.92;;;2.90;;
73276;SDS011;61501;43.316;5.372;2022-08-01T03:43:09;6.05;;;3.03;;
73276;SDS011;61501;43.316;5.372;2022-08-01T03:45:40;4.50;;;3.60;;
73276;SDS011;61501;43.316;5.372;2022-08-01T03:48:10;6.75;;;4.22;;
73276;SDS011;61501;43.316;5.372;2022-08-01T03:50:41;8.32;;;3.58;;
73276;SDS011;61501;43.316;5.372;2022-08-01T03:53:08;6.15;;;3.30;;
73276;SDS011;61501;43.316;5.372;2022-08-01T03:55:35;7.28;;;4.55;;
73276;SDS011;61501;43.316;5.372;2022-08-01T03:58:05;6.35;;;3.60;;
73276;SDS011;61501;43.316;5.372;2022-08-01T04:00:32;9.38;;;3.40;;
73276;SDS011;61501;43.316;5.372;2022-08-01T04:03:00;6.63;;;3.40;;
73276;SDS011;61501;43.316;5.372;2022-08-01T04:05:26;8.45;;;4.40;;
73276;SDS011;61501;43.316;5.372;2022-08-01T04:07:51;7.10;;;4.25;;
73276;SDS011;61501;43.316;5.372;2022-08-01T04:10:24;6.30;;;3.50;;
73276;SDS011;61501;43.316;5.372;2022-08-01T04:12:51;5.90;;;3.45;;
73276;SDS011;61501;43.316;5.372;2022-08-01T04:15:17;7.90;;;4.53;;
73276;SDS011;61501;43.316;5.372;2022-08-01T04:17:43;7.50;;;3.38;;
73276;SDS011;61501;43.316;5.372;2022-08-01T04:20:09;5.88;;;3.65;;
73276;SDS011;61501;43.316;5.372;2022-08-01T04:22:36;12.13;;;6.78;;
73276;SDS011;61501;43.316;5.372;2022-08-01T04:25:02;8.93;;;5.70;;
73276;SDS011;61501;43.316;5.372;2022-08-01T04:27:36;7.47;;;3.40;;
73276;SDS011;61501;43.316;5.372;2022-08-01T04:30:05;5.03;;;3.25;;
73276;SDS011;61501;43.316;5.372;2022-08-01T04:32:36;6.53;;;3.15;;
73276;SDS011;61501;43.316;5.372;2022-08-01T04:35:06;6.97;;;3.50;;
73276;SDS011;61501;43.316;5.372;2022-08-01T04:37:34;5.28;;;3.40;;
73276;SDS011;61501;43.316;5.372;2022-08-01T04:40:02;5.97;;;3.10;;
73276;SDS011;61501;43.316;5.372;2022-08-01T04:42:30;7.65;;;3.50;;
73276;SDS011;61501;43.316;5.372;2022-08-01T04:44:56;10.15;;;4.30;;
73276;SDS011;61501;43.316;5.372;2022-08-01T04:47:22;16.55;;;4.25;;
73276;SDS011;61501;43.316;5.372;2022-08-01T04:49:49;13.30;;;3.90;;
73276;SDS011;61501;43.316;5.372;2022-08-01T04:52:16;14.40;;;4.75;;
73276;SDS011;61501;43.316;5.372;2022-08-01T04:54:45;16.70;;;4.90;;
73276;SDS011;61501;43.316;5.372;2022-08-01T04:57:14;10.35;;;4.20;;
73276;SDS011;61501;43.316;5.372;2022-08-01T04:59:41;18.25;;;4.85;;
73276;SDS011;61501;43.316;5.372;2022-08-01T05:02:09;13.13;;;4.57;;
73276;SDS011;61501;43.316;5.372;2022-08-01T05:04:37;20.40;;;5.07;;
73276;SDS011;61501;43.316;5.372;2022-08-01T05:07:04;16.25;;;4.68;;
73276;SDS011;61501;43.316;5.372;2022-08-01T05:09:31;18.25;;;4.95;;
73276;SDS011;61501;43.316;5.372;2022-08-01T05:11:58;20.60;;;4.65;;
73276;SDS011;61501;43.316;5.372;2022-08-01T05:14:25;19.77;;;4.63;;
73276;SDS011;61501;43.316;5.372;2022-08-01T05:16:51;21.55;;;4.70;;
73276;SDS011;61501;43.316;5.372;2022-08-01T05:19:17;25.40;;;4.70;;
73276;SDS011;61501;43.316;5.372;2022-08-01T05:21:43;27.60;;;5.35;;
73276;SDS011;61501;43.316;5.372;2022-08-01T05:24:09;24.95;;;4.65;;
73276;SDS011;61501;43.316;5.372;2022-08-01T05:26:35;20.20;;;5.57;;
73276;SDS011;61501;43.316;5.372;2022-08-01T05:29:01;19.67;;;4.90;;
73276;SDS011;61501;43.316;5.372;2022-08-01T05:31:27;15.00;;;4.40;;
73276;SDS011;61501;43.316;5.372;2022-08-01T05:33:53;23.08;;;5.63;;
73276;SDS011;61501;43.316;5.372;2022-08-01T05:36:18;31.77;;;5.22;;
73276;SDS011;61501;43.316;5.372;2022-08-01T05:38:44;28.52;;;5.40;;
73276;SDS011;61501;43.316;5.372;2022-08-01T05:41:10;26.02;;;5.65;;
73276;SDS011;61501;43.316;5.372;2022-08-01T05:43:36;25.38;;;5.93;;
73276;SDS011;61501;43.316;5.372;2022-08-01T05:46:02;18.92;;;5.60;;
73276;SDS011;61501;43.316;5.372;2022-08-01T05:48:27;21.15;;;5.03;;
73276;SDS011;61501;43.316;5.372;2022-08-01T05:50:54;10.23;;;5.07;;
73276;SDS011;61501;43.316;5.372;2022-08-01T05:53:19;9.93;;;5.00;;
73276;SDS011;61501;43.316;5.372;2022-08-01T05:55:45;15.45;;;5.15;;
73276;SDS011;61501;43.316;5.372;2022-08-01T05:58:11;13.73;;;5.70;;
73276;SDS011;61501;43.316;5.372;2022-08-01T06:00:37;15.13;;;6.28;;
73276;SDS011;61501;43.316;5.372;2022-08-01T06:03:03;12.18;;;5.30;;
73276;SDS011;61501;43.316;5.372;2022-08-01T06:05:28;16.80;;;6.32;;
73276;SDS011;61501;43.316;5.372;2022-08-01T06:07:54;15.35;;;6.85;;
73276;SDS011;61501;43.316;5.372;2022-08-01T06:10:20;11.48;;;6.65;;
73276;SDS011;61501;43.316;5.372;2022-08-01T06:12:46;13.45;;;7.07;;
73276;SDS011;61501;43.316;5.372;2022-08-01T06:15:11;11.43;;;6.13;;
73276;SDS011;61501;43.316;5.372;2022-08-01T06:17:37;11.60;;;6.70;;
73276;SDS011;61501;43.316;5.372;2022-08-01T06:20:04;18.05;;;6.70;;
73276;SDS011;61501;43.316;5.372;2022-08-01T06:22:31;17.48;;;6.55;;
73276;SDS011;61501;43.316;5.372;2022-08-01T06:24:57;21.58;;;6.97;;
73276;SDS011;61501;43.316;5.372;2022-08-01T06:27:23;36.75;;;9.75;;
73276;SDS011;61501;43.316;5.372;2022-08-01T06:29:52;32.22;;;7.97;;
73276;SDS011;61501;43.316;5.372;2022-08-01T06:32:19;27.30;;;6.57;;
73276;SDS011;61501;43.316;5.372;2022-08-01T06:34:45;30.23;;;7.30;;
73276;SDS011;61501;43.316;5.372;2022-08-01T06:37:11;28.65;;;6.45;;
73276;SDS011;61501;43.316;5.372;2022-08-01T06:39:38;25.10;;;10.00;;
73276;SDS011;61501;43.316;5.372;2022-08-01T06:42:04;27.63;;;8.40;;
73276;SDS011;61501;43.316;5.372;2022-08-01T06:44:30;25.60;;;8.40;;
73276;SDS011;61501;43.316;5.372;2022-08-01T06:46:56;27.00;;;6.88;;
73276;SDS011;61501;43.316;5.372;2022-08-01T06:49:23;29.58;;;6.65;;
73276;SDS011;61501;43.316;5.372;2022-08-01T06:51:49;19.55;;;5.68;;
73276;SDS011;61501;43.316;5.372;2022-08-01T06:54:15;28.42;;;6.30;;
73276;SDS011;61501;43.316;5.372;2022-08-01T06:56:42;31.25;;;5.60;;
73276;SDS011;61501;43.316;5.372;2022-08-01T06:59:08;30.15;;;6.25;;
73276;SDS011;61501;43.316;5.372;2022-08-01T07:01:34;28.77;;;6.15;;
73276;SDS011;61501;43.316;5.372;2022-08-01T07:04:01;25.48;;;6.35;;
73276;SDS011;61501;43.316;5.372;2022-08-01T07:06:27;25.17;;;5.82;;
73276;SDS011;61501;43.316;5.372;2022-08-01T07:08:53;27.27;;;6.30;;
73276;SDS011;61501;43.316;5.372;2022-08-01T07:11:20;24.17;;;5.80;;
73276;SDS011;61501;43.316;5.372;2022-08-01T07:13:46;17.17;;;5.22;;
73276;SDS011;61501;43.316;5.372;2022-08-01T07:16:12;31.90;;;5.30;;
73276;SDS011;61501;43.316;5.372;2022-08-01T07:18:39;26.15;;;6.63;;
73276;SDS011;61501;43.316;5.372;2022-08-01T07:21:05;20.50;;;6.32;;
73276;SDS011;61501;43.316;5.372;2022-08-01T07:23:31;23.73;;;5.88;;
73276;SDS011;61501;43.316;5.372;2022-08-01T07:25:59;16.42;;;6.10;;
73276;SDS011;61501;43.316;5.372;2022-08-01T07:28:26;15.45;;;6.28;;
73276;SDS011;61501;43.316;5.372;2022-08-01T07:30:52;22.35;;;6.20;;
73276;SDS011;61501;43.316;5.372;2022-08-01T07:33:18;24.45;;;6.68;;
73276;SDS011;61501;43.316;5.372;2022-08-01T07:35:44;23.65;;;8.00;;
73276;SDS011;61501;43.316;5.372;2022-08-01T07:38:10;30.35;;;7.15;;
73276;SDS011;61501;43.316;5.372;2022-08-01T07:40:36;34.92;;;7.22;;
73276;SDS011;61501;43.316;5.372;2022-08-01T07:43:02;18.20;;;7.22;;
73276;SDS011;61501;43.316;5.372;2022-08-01T07:45:29;25.20;;;6.25;;
73276;SDS011;61501;43.316;5.372;2022-08-01T07:47:56;27.30;;;6.68;;
73276;SDS011;61501;43.316;5.372;2022-08-01T07:50:22;20.42;;;6.90;;
73276;SDS011;61501;43.316;5.372;2022-08-01T07:52:48;17.92;;;6.75;;
73276;SDS011;61501;43.316;5.372;2022-08-01T07:55:14;18.92;;;5.78;;
73276;SDS011;61501;43.316;5.372;2022-08-01T07:57:40;12.18;;;6.07;;
73276;SDS011;61501;43.316;5.372;2022-08-01T08:00:06;19.42;;;6.43;;
73276;SDS011;61501;43.316;5.372;2022-08-01T08:02:33;36.20;;;6.03;;
73276;SDS011;61501;43.316;5.372;2022-08-01T08:04:59;19.75;;;6.63;;
73276;SDS011;61501;43.316;5.372;2022-08-01T08:07:25;20.63;;;5.78;;
73276;SDS011;61501;43.316;5.372;2022-08-01T08:09:50;17.92;;;5.85;;
73276;SDS011;61501;43.316;5.372;2022-08-01T08:12:16;13.43;;;5.38;;
73276;SDS011;61501;43.316;5.372;2022-08-01T08:14:42;16.83;;;5.75;;
73276;SDS011;61501;43.316;5.372;2022-08-01T08:17:07;13.50;;;5.35;;
73276;SDS011;61501;43.316;5.372;2022-08-01T08:22:25;13.40;;;5.22;;
73276;SDS011;61501;43.316;5.372;2022-08-01T08:24:51;17.65;;;5.32;;
73276;SDS011;61501;43.316;5.372;2022-08-01T08:27:17;13.63;;;4.90;;
73276;SDS011;61501;43.316;5.372;2022-08-01T08:29:43;15.57;;;5.65;;
73276;SDS011;61501;43.316;5.372;2022-08-01T08:32:09;12.23;;;5.00;;
73276;SDS011;61501;43.316;5.372;2022-08-01T08:34:35;15.60;;;5.90;;
73276;SDS011;61501;43.316;5.372;2022-08-01T08:37:01;10.40;;;4.93;;
73276;SDS011;61501;43.316;5.372;2022-08-01T08:39:27;14.80;;;5.00;;
73276;SDS011;61501;43.316;5.372;2022-08-01T08:41:56;23.20;;;5.40;;
73276;SDS011;61501;43.316;5.372;2022-08-01T08:44:22;20.98;;;5.15;;
73276;SDS011;61501;43.316;5.372;2022-08-01T08:46:50;10.75;;;4.88;;
73276;SDS011;61501;43.316;5.372;2022-08-01T08:49:27;17.88;;;5.20;;
73276;SDS011;61501;43.316;5.372;2022-08-01T08:51:53;11.70;;;4.72;;
73276;SDS011;61501;43.316;5.372;2022-08-01T08:54:23;14.60;;;4.97;;
73276;SDS011;61501;43.316;5.372;2022-08-01T08:56:50;12.43;;;4.30;;
73276;SDS011;61501;43.316;5.372;2022-08-01T08:59:17;12.00;;;4.07;;
73276;SDS011;61501;43.316;5.372;2022-08-01T09:01:43;9.05;;;4.35;;
73276;SDS011;61501;43.316;5.372;2022-08-01T09:04:09;8.52;;;3.75;;
73276;SDS011;61501;43.316;5.372;2022-08-01T09:06:35;7.55;;;4.25;;
73276;SDS011;61501;43.316;5.372;2022-08-01T09:09:02;7.95;;;3.88;;
73276;SDS011;61501;43.316;5.372;2022-08-01T09:11:28;7.13;;;3.70;;
73276;SDS011;61501;43.316;5.372;2022-08-01T09:14:27;9.38;;;4.00;;
73276;SDS011;61501;43.316;5.372;2022-08-01T09:17:01;8.80;;;3.92;;
73276;SDS011;61501;43.316;5.372;2022-08-01T09:19:34;11.15;;;4.78;;
73276;SDS011;61501;43.316;5.372;2022-08-01T09:22:01;21.10;;;4.88;;
73276;SDS011;61501;43.316;5.372;2022-08-01T09:24:28;6.55;;;3.72;;
73276;SDS011;61501;43.316;5.372;2022-08-01T09:26:55;11.88;;;6.75;;
73276;SDS011;61501;43.316;5.372;2022-08-01T09:29:22;12.43;;;4.53;;
73276;SDS011;61501;43.316;5.372;2022-08-01T09:31:49;8.02;;;4.03;;
73276;SDS011;61501;43.316;5.372;2022-08-01T09:34:15;11.23;;;4.35;;
73276;SDS011;61501;43.316;5.372;2022-08-01T09:36:52;10.77;;;4.40;;
73276;SDS011;61501;43.316;5.372;2022-08-01T09:39:22;9.73;;;3.90;;
73276;SDS011;61501;43.316;5.372;2022-08-01T09:41:49;7.70;;;4.20;;
73276;SDS011;61501;43.316;5.372;2022-08-01T09:44:16;9.18;;;3.85;;
73276;SDS011;61501;43.316;5.372;2022-08-01T09:47:00;11.43;;;4.57;;
73276;SDS011;61501;43.316;5.372;2022-08-01T09:49:30;6.68;;;4.30;;
73276;SDS011;61501;43.316;5.372;2022-08-01T09:51:57;15.10;;;5.10;;
73276;SDS011;61501;43.316;5.372;2022-08-01T09:54:30;7.63;;;4.45;;
73276;SDS011;61501;43.316;5.372;2022-08-01T09:57:07;10.85;;;4.15;;
73276;SDS011;61501;43.316;5.372;2022-08-01T09:59:36;10.57;;;4.05;;
73276;SDS011;61501;43.316;5.372;2022-08-01T10:02:05;12.80;;;4.70;;
73276;SDS011;61501;43.316;5.372;2022-08-01T10:04:31;7.68;;;3.75;;
73276;SDS011;61501;43.316;5.372;2022-08-01T10:07:03;9.15;;;3.92;;
73276;SDS011;61501;43.316;5.372;2022-08-01T10:09:31;8.05;;;3.70;;
73276;SDS011;61501;43.316;5.372;2022-08-01T10:11:59;8.25;;;4.05;;
73276;SDS011;61501;43.316;5.372;2022-08-01T10:14:25;6.88;;;3.60;;
73276;SDS011;61501;43.316;5.372;2022-08-01T10:16:56;5.63;;;3.97;;
73276;SDS011;61501;43.316;5.372;2022-08-01T10:19:23;5.25;;;4.10;;
73276;SDS011;61501;43.316;5.372;2022-08-01T10:21:50;9.82;;;4.07;;
73276;SDS011;61501;43.316;5.372;2022-08-01T10:24:21;4.75;;;3.78;;
73276;SDS011;61501;43.316;5.372;2022-08-01T10:26:48;6.13;;;4.18;;
73276;SDS011;61501;43.316;5.372;2022-08-01T10:29:16;11.50;;;5.25;;
73276;SDS011;61501;43.316;5.372;2022-08-01T10:31:44;6.97;;;4.00;;
73276;SDS011;61501;43.316;5.372;2022-08-01T10:34:10;7.60;;;4.30;;
73276;SDS011;61501;43.316;5.372;2022-08-01T10:36:37;7.65;;;4.15;;
73276;SDS011;61501;43.316;5.372;2022-08-01T10:39:05;14.07;;;4.10;;
73276;SDS011;61501;43.316;5.372;2022-08-01T10:41:32;23.85;;;4.88;;
73276;SDS011;61501;43.316;5.372;2022-08-01T10:44:00;9.70;;;4.20;;
73276;SDS011;61501;43.316;5.372;2022-08-01T10:46:27;11.93;;;4.22;;
73276;SDS011;61501;43.316;5.372;2022-08-01T10:49:01;11.50;;;3.90;;
73276;SDS011;61501;43.316;5.372;2022-08-01T10:51:28;8.23;;;4.15;;
73276;SDS011;61501;43.316;5.372;2022-08-01T10:53:54;7.22;;;4.18;;
73276;SDS011;61501;43.316;5.372;2022-08-01T10:56:22;10.10;;;4.00;;
73276;SDS011;61501;43.316;5.372;2022-08-01T10:58:49;7.25;;;4.45;;
73276;SDS011;61501;43.316;5.372;2022-08-01T11:03:56;11.77;;;6.72;;
73276;SDS011;61501;43.316;5.372;2022-08-01T11:09:03;6.10;;;4.00;;
73276;SDS011;61501;43.316;5.372;2022-08-01T11:11:29;7.32;;;4.60;;
73276;SDS011;61501;43.316;5.372;2022-08-01T11:16:38;10.10;;;3.90;;
73276;SDS011;61501;43.316;5.372;2022-08-01T11:19:04;6.45;;;4.03;;
73276;SDS011;61501;43.316;5.372;2022-08-01T11:24:15;3.80;;;3.10;;
73276;SDS011;61501;43.316;5.372;2022-08-01T11:26:41;6.53;;;3.60;;
73276;SDS011;61501;43.316;5.372;2022-08-01T11:29:27;8.65;;;3.55;;
73276;SDS011;61501;43.316;5.372;2022-08-01T11:31:53;11.98;;;3.50;;
73276;SDS011;61501;43.316;5.372;2022-08-01T11:37:37;30.67;;;27.65;;
73276;SDS011;61501;43.316;5.372;2022-08-01T11:42:45;7.80;;;3.38;;
73276;SDS011;61501;43.316;5.372;2022-08-01T11:45:11;6.38;;;3.67;;
73276;SDS011;61501;43.316;5.372;2022-08-01T11:47:47;7.15;;;3.17;;
73276;SDS011;61501;43.316;5.372;2022-08-01T11:53:04;11.00;;;3.60;;
73276;SDS011;61501;43.316;5.372;2022-08-01T11:55:31;6.10;;;3.42;;
73276;SDS011;61501;43.316;5.372;2022-08-01T11:58:01;8.57;;;3.60;;
73276;SDS011;61501;43.316;5.372;2022-08-01T12:00:31;9.90;;;4.07;;
73276;SDS011;61501;43.316;5.372;2022-08-01T12:03:01;6.93;;;3.53;;
73276;SDS011;61501;43.316;5.372;2022-08-01T12:05:28;4.80;;;3.50;;
73276;SDS011;61501;43.316;5.372;2022-08-01T12:07:54;7.35;;;3.45;;
73276;SDS011;61501;43.316;5.372;2022-08-01T12:10:22;8.93;;;3.50;;
73276;SDS011;61501;43.316;5.372;2022-08-01T12:13:10;6.13;;;3.20;;
73276;SDS011;61501;43.316;5.372;2022-08-01T12:15:36;7.80;;;3.20;;
73276;SDS011;61501;43.316;5.372;2022-08-01T12:18:03;7.68;;;3.80;;
73276;SDS011;61501;43.316;5.372;2022-08-01T12:20:31;7.40;;;3.50;;
73276;SDS011;61501;43.316;5.372;2022-08-01T12:23:10;5.72;;;3.88;;
73276;SDS011;61501;43.316;5.372;2022-08-01T12:25:38;7.13;;;3.17;;
73276;SDS011;61501;43.316;5.372;2022-08-01T12:28:05;11.43;;;3.83;;
73276;SDS011;61501;43.316;5.372;2022-08-01T12:30:33;6.32;;;3.70;;
73276;SDS011;61501;43.316;5.372;2022-08-01T12:33:00;6.82;;;3.85;;
73276;SDS011;61501;43.316;5.372;2022-08-01T12:35:28;7.18;;;3.50;;
73276;SDS011;61501;43.316;5.372;2022-08-01T12:37:55;5.03;;;3.70;;
73276;SDS011;61501;43.316;5.372;2022-08-01T12:40:26;9.13;;;4.10;;
73276;SDS011;61501;43.316;5.372;2022-08-01T12:42:53;14.50;;;5.40;;
73276;SDS011;61501;43.316;5.372;2022-08-01T12:45:21;9.50;;;5.07;;
73276;SDS011;61501;43.316;5.372;2022-08-01T12:47:49;6.22;;;4.65;;
73276;SDS011;61501;43.316;5.372;2022-08-01T12:50:18;7.60;;;4.30;;
73276;SDS011;61501;43.316;5.372;2022-08-01T12:52:49;8.02;;;3.70;;
73276;SDS011;61501;43.316;5.372;2022-08-01T12:55:19;8.98;;;4.65;;
73276;SDS011;61501;43.316;5.372;2022-08-01T12:58:04;8.52;;;3.33;;
73276;SDS011;61501;43.316;5.372;2022-08-01T13:00:31;10.82;;;3.75;;
73276;SDS011;61501;43.316;5.372;2022-08-01T13:03:15;9.18;;;3.65;;
73276;SDS011;61501;43.316;5.372;2022-08-01T13:05:48;6.32;;;3.58;;
73276;SDS011;61501;43.316;5.372;2022-08-01T13:08:23;4.43;;;3.00;;
73276;SDS011;61501;43.316;5.372;2022-08-01T13:10:49;6.07;;;2.70;;
73276;SDS011;61501;43.316;5.372;2022-08-01T13:13:16;6.00;;;2.65;;
73276;SDS011;61501;43.316;5.372;2022-08-01T13:15:44;6.40;;;3.03;;
73276;SDS011;61501;43.316;5.372;2022-08-01T13:18:27;7.72;;;3.08;;
73276;SDS011;61501;43.316;5.372;2022-08-01T13:23:19;12.85;;;3.50;;
73276;SDS011;61501;43.316;5.372;2022-08-01T13:25:54;6.63;;;3.08;;
73276;SDS011;61501;43.316;5.372;2022-08-01T13:28:25;8.10;;;3.40;;
73276;SDS011;61501;43.316;5.372;2022-08-01T13:30:55;11.30;;;3.60;;
73276;SDS011;61501;43.316;5.372;2022-08-01T13:33:21;8.73;;;3.33;;
73276;SDS011;61501;43.316;5.372;2022-08-01T13:35:49;9.63;;;3.70;;
73276;SDS011;61501;43.316;5.372;2022-08-01T13:38:16;5.72;;;3.38;;
73276;SDS011;61501;43.316;5.372;2022-08-01T13:40:42;8.40;;;3.10;;
73276;SDS011;61501;43.316;5.372;2022-08-01T13:43:08;5.45;;;3.17;;
73276;SDS011;61501;43.316;5.372;2022-08-01T13:45:34;9.93;;;3.20;;
73276;SDS011;61501;43.316;5.372;2022-08-01T13:48:01;7.15;;;2.95;;
73276;SDS011;61501;43.316;5.372;2022-08-01T13:50:27;6.28;;;2.95;;
73276;SDS011;61501;43.316;5.372;2022-08-01T13:52:53;6.07;;;3.20;;
73276;SDS011;61501;43.316;5.372;2022-08-01T13:55:19;5.75;;;2.95;;
73276;SDS011;61501;43.316;5.372;2022-08-01T13:57:45;6.63;;;2.60;;
73276;SDS011;61501;43.316;5.372;2022-08-01T14:00:11;8.48;;;3.08;;
73276;SDS011;61501;43.316;5.372;2022-08-01T14:02:37;7.30;;;3.20;;
73276;SDS011;61501;43.316;5.372;2022-08-01T14:05:03;6.05;;;3.20;;
73276;SDS011;61501;43.316;5.372;2022-08-01T14:07:29;6.03;;;2.63;;
73276;SDS011;61501;43.316;5.372;2022-08-01T14:09:55;11.77;;;6.00;;
73276;SDS011;61501;43.316;5.372;2022-08-01T14:12:21;5.28;;;2.97;;
73276;SDS011;61501;43.316;5.372;2022-08-01T14:14:46;8.18;;;3.97;;
73276;SDS011;61501;43.316;5.372;2022-08-01T14:17:12;8.15;;;6.80;;
73276;SDS011;61501;43.316;5.372;2022-08-01T14:19:38;4.60;;;2.60;;
73276;SDS011;61501;43.316;5.372;2022-08-01T14:22:03;5.25;;;2.72;;
73276;SDS011;61501;43.316;5.372;2022-08-01T14:24:29;4.53;;;2.85;;
73276;SDS011;61501;43.316;5.372;2022-08-01T14:26:54;7.57;;;3.10;;
73276;SDS011;61501;43.316;5.372;2022-08-01T14:29:20;6.32;;;3.22;;
73276;SDS011;61501;43.316;5.372;2022-08-01T14:31:46;9.88;;;3.00;;
73276;SDS011;61501;43.316;5.372;2022-08-01T14:34:12;9.57;;;3.13;;
73276;SDS011;61501;43.316;5.372;2022-08-01T14:36:38;7.72;;;5.20;;
73276;SDS011;61501;43.316;5.372;2022-08-01T14:39:04;8.05;;;3.33;;
73276;SDS011;61501;43.316;5.372;2022-08-01T14:41:31;5.50;;;2.80;;
73276;SDS011;61501;43.316;5.372;2022-08-01T14:43:57;5.55;;;3.15;;
73276;SDS011;61501;43.316;5.372;2022-08-01T14:46:24;11.65;;;9.63;;
73276;SDS011;61501;43.316;5.372;2022-08-01T14:48:50;6.95;;;3.28;;
73276;SDS011;61501;43.316;5.372;2022-08-01T14:51:16;4.88;;;3.40;;
73276;SDS011;61501;43.316;5.372;2022-08-01T14:53:42;6.20;;;3.03;;
73276;SDS011;61501;43.316;5.372;2022-08-01T14:56:08;7.13;;;3.42;;
73276;SDS011;61501;43.316;5.372;2022-08-01T14:58:34;5.70;;;2.88;;
73276;SDS011;61501;43.316;5.372;2022-08-01T15:01:00;7.40;;;3.58;;
73276;SDS011;61501;43.316;5.372;2022-08-01T15:03:26;9.00;;;2.90;;
73276;SDS011;61501;43.316;5.372;2022-08-01T15:05:52;6.47;;;2.92;;
73276;SDS011;61501;43.316;5.372;2022-08-01T15:08:18;5.50;;;2.97;;
73276;SDS011;61501;43.316;5.372;2022-08-01T15:10:43;5.07;;;3.17;;
73276;SDS011;61501;43.316;5.372;2022-08-01T15:13:09;7.30;;;2.78;;
73276;SDS011;61501;43.316;5.372;2022-08-01T15:15:34;7.43;;;3.22;;
73276;SDS011;61501;43.316;5.372;2022-08-01T15:18:01;8.52;;;3.00;;
73276;SDS011;61501;43.316;5.372;2022-08-01T15:20:27;6.75;;;3.20;;
73276;SDS011;61501;43.316;5.372;2022-08-01T15:22:53;5.45;;;3.35;;
73276;SDS011;61501;43.316;5.372;2022-08-01T15:25:19;5.60;;;3.13;;
73276;SDS011;61501;43.316;5.372;2022-08-01T15:27:45;9.13;;;3.10;;
73276;SDS011;61501;43.316;5.372;2022-08-01T15:30:11;8.85;;;3.25;;